Latest Weather Observations for Westmere

IDV60801

Issued at 2:31 pm EST Sunday 19 April 2015 (issued every 30 minutes, with the page automatically refreshed every 10 minutes)

About weather observations | Map of weather stations | Latest weather observations for VIC | Other Formats
Station Details ID: 089112 Name: WESTMERE Lat: -37.71 Lon: 142.94 Height: 226.0 m
Data from the previous 72 hours. | See also: Recent months at Westmere
Date/Time
EST
Temp
°C
App
Temp
°C
Dew
Point
Rel
Hum
%
Delta-T
°C
Wind Press
QNH
hPa
Press
MSL
hPa
Rain
since 9 am
mm
Dir
 
Spd
km/h
Gust
km/h
Spd
kts
Gust
kts
19/02:30pm 11.7 4.4 4.7 62 3.2 SSE 32 43 17 23 1031.1 1031.0 0.0
19/02:15pm 11.4 4.0 3.9 60 3.4 S 32 46 17 25 1031.2 1031.1 0.0
19/02:00pm 12.2 5.5 3.9 57 3.7 SSW 28 39 15 21 1030.9 1030.9 0.0
19/01:30pm 10.5 2.4 3.5 62 3.1 S 35 54 19 29 1030.8 1030.8 0.0
19/01:17pm 12.4 5.6 4.9 60 3.5 S 30 54 16 29 1030.6 1030.6 0.0
19/01:00pm 11.2 4.0 3.0 57 3.6 SSW 30 41 16 22 1030.6 1030.6 0.0
19/12:38pm 10.6 4.1 4.7 67 2.7 S 28 52 15 28 1030.6 1030.6 0.0
19/12:30pm 10.8 5.6 5.6 70 2.4 S 22 33 12 18 1030.6 1030.6 0.0
19/12:00pm 9.6 1.1 5.2 74 2.0 S 39 56 21 30 1030.7 1030.7 0.0
19/11:55am 10.4 2.7 5.2 70 2.4 S 35 56 19 30 1030.6 1030.6 0.0
19/11:30am 12.3 4.8 3.5 55 4.0 S 32 46 17 25 1030.0 1029.9 0.0
19/11:00am 11.3 5.0 3.8 60 3.3 S 26 41 14 22 1029.8 1029.7 0.0
19/10:30am 10.1 3.4 5.7 74 2.0 S 30 46 16 25 1029.6 1029.5 0.0
19/10:00am 10.4 5.3 5.8 73 2.1 SSW 22 32 12 17 1029.3 1029.2 0.0
19/09:30am 10.3 5.8 6.8 79 1.7 S 20 28 11 15 1028.9 1028.8 0.0
19/09:00am 8.9 5.1 6.0 82 1.3 SSW 15 20 8 11 1028.5 1028.4 5.8
19/08:30am 8.3 4.9 5.9 85 1.1 SW 13 19 7 10 1027.8 1027.7 5.8
19/08:00am 7.1 4.0 5.7 91 0.6 WSW 11 15 6 8 1026.9 1026.8 5.8
19/07:30am 6.1 3.4 5.5 96 0.3 SW 9 13 5 7 1026.1 1026.0 5.8
19/07:00am 5.9 3.5 5.3 96 0.3 WSW 7 11 4 6 1025.5 1025.4 5.8
19/06:30am 6.3 3.2 5.7 96 0.3 SW 11 15 6 8 1025.2 1025.1 5.8
19/06:00am 6.7 4.1 6.0 95 0.3 SW 9 13 5 7 1024.7 1024.6 5.8
19/05:30am 6.5 3.5 5.8 95 0.3 WSW 11 17 6 9 1024.2 1024.1 5.8
19/05:00am 6.6 3.6 6.2 97 0.2 WSW 11 28 6 15 1023.7 1023.6 5.8
19/04:30am 6.3 3.6 5.7 96 0.3 SW 9 13 5 7 1023.1 1023.0 5.8
19/04:00am 7.1 4.2 6.4 95 0.3 WSW 11 19 6 10 1022.9 1022.8 5.2
19/03:30am 6.6 3.5 5.7 94 0.4 W 11 17 6 9 1022.0 1021.8 5.2
19/03:00am 6.9 4.6 5.7 92 0.5 W 7 13 4 7 1021.8 1021.6 5.2
19/02:30am 6.8 4.2 5.9 94 0.4 WSW 9 13 5 7 1021.5 1021.4 5.2
19/02:00am 6.6 3.9 5.7 94 0.4 WSW 9 13 5 7 1021.5 1021.4 5.2
19/01:30am 7.2 4.2 6.1 93 0.5 SW 11 17 6 9 1021.0 1020.9 5.2
19/01:00am 7.7 5.2 6.6 93 0.5 WSW 9 13 5 7 1020.7 1020.6 5.2
19/12:30am 7.8 5.7 6.7 93 0.5 W 7 11 4 6 1020.2 1020.1 5.2
19/12:00am 8.3 5.0 6.4 88 0.9 WSW 13 20 7 11 1019.9 1019.8 5.2
 
Date/Time
EST
Temp
°C
App
Temp
°C
Dew
Point
Rel
Hum
%
Delta-T
°C
Wind Press
QNH
hPa
Press
MSL
hPa
Rain
since 9 am
mm
Dir
 
Spd
km/h
Gust
km/h
Spd
kts
Gust
kts
18/11:30pm 8.3 4.3 6.8 90 0.7 WSW 17 24 9 13 1019.8 1019.7 5.2
18/11:00pm 8.5 5.4 7.4 93 0.5 SW 13 17 7 9 1019.7 1019.6 5.2
18/10:38pm 8.8 4.1 7.9 94 0.4 WSW 22 39 12 21 1019.5 1019.4 5.0
18/10:30pm 8.8 6.3 8.2 96 0.3 WSW 11 19 6 10 1019.3 1019.2 4.8
18/10:00pm 9.3 6.9 8.7 96 0.3 W 11 17 6 9 1018.8 1018.6 4.8
18/09:30pm 9.7 7.4 8.9 95 0.4 WSW 11 19 6 10 1018.3 1018.1 4.8
18/09:00pm 10.1 7.1 9.3 95 0.4 WSW 15 22 8 12 1017.9 1017.7 4.8
18/08:30pm 9.9 8.1 9.4 97 0.3 W 9 15 5 8 1017.3 1017.1 4.8
18/08:00pm 9.7 7.5 9.2 97 0.2 W 11 15 6 8 1016.9 1016.8 4.8
18/07:30pm 9.8 8.0 9.5 98 0.2 WSW 9 13 5 7 1016.5 1016.4 4.8
18/07:00pm 9.8 7.3 9.7 99 0.1 WSW 13 20 7 11 1016.0 1015.9 4.8
18/06:30pm 9.5 5.7 9.2 98 0.1 SW 19 26 10 14 1015.6 1015.5 4.4
18/06:00pm 9.3 4.2 9.2 99 0.0 SW 26 33 14 18 1015.1 1014.9 4.0
18/05:30pm 10.1 5.6 10.0 99 0.1 SW 24 35 13 19 1014.4 1014.2 2.8
18/05:00pm 11.3 8.8 11.1 99 0.1 SW 15 22 8 12 1013.6 1013.4 1.0
18/04:30pm 11.2 6.2 11.0 99 0.1 SSW 28 37 15 20 1013.3 1013.1 0.4
18/04:06pm 13.0 7.1 11.2 89 1.0 WSW 33 56 18 30 1012.7 1012.5 0.2
18/04:01pm 14.8 9.5 9.8 72 2.6 WNW 28 56 15 30 1012.1 1012.0 0.2
18/04:00pm 16.3 11.4 9.9 66 3.4 WNW 26 56 14 30 1011.7 1011.6 0.2
18/03:30pm 17.7 11.9 9.6 59 4.3 WNW 30 39 16 21 1011.2 1011.0 0.2
18/03:00pm 18.3 12.0 9.6 57 4.6 NW 33 46 18 25 1011.1 1010.9 0.0
18/02:30pm 17.9 11.8 9.8 59 4.3 WNW 32 43 17 23 1011.4 1011.2 0.0
18/02:12pm 18.1 12.6 9.2 56 4.7 NW 28 46 15 25 1011.4 1011.2 0.0
18/02:00pm 18.1 12.6 9.2 56 4.7 WNW 28 37 15 20 1011.5 1011.4 0.0
18/01:30pm 18.9 13.3 8.6 51 5.4 WNW 28 39 15 21 1011.8 1011.7 0.0
18/01:00pm 19.1 13.0 8.1 49 5.7 WNW 30 41 16 22 1012.0 1011.9 0.0
18/12:30pm 18.7 13.8 8.4 51 5.4 WNW 24 32 13 17 1012.6 1012.4 0.0
18/12:00pm 17.9 13.4 8.5 54 4.9 WNW 22 35 12 19 1013.0 1012.8 0.0
18/11:30am 17.4 13.4 9.1 58 4.4 WNW 20 30 11 16 1013.5 1013.3 0.0
18/11:00am 16.1 12.2 8.6 61 3.9 NW 19 28 10 15 1013.8 1013.6 0.0
18/10:30am 15.4 11.6 8.9 65 3.4 NW 19 24 10 13 1014.4 1014.2 0.0
18/10:00am 14.0 9.5 8.4 69 2.8 NW 22 28 12 15 1014.4 1014.2 0.0
18/09:30am 13.3 8.6 9.4 77 2.0 NW 24 35 13 19 1014.6 1014.4 0.0
18/09:00am 12.5 9.1 9.0 79 1.8 WNW 17 35 9 19 1014.5 1014.3 0.6
18/08:30am 11.4 8.8 9.3 87 1.1 WNW 13 24 7 13 1014.5 1014.3 0.6
18/08:00am 10.9 8.0 9.8 93 0.6 WNW 15 20 8 11 1014.1 1013.9 0.6
18/07:30am 10.2 8.9 9.9 98 0.2 W 7 9 4 5 1013.6 1013.4 0.6
18/07:00am 10.8 9.3 10.5 98 0.2 W 9 13 5 7 1013.4 1013.2 0.6
18/06:30am 11.2 10.4 11.0 99 0.1 WSW 6 9 3 5 1013.4 1013.2 0.6
18/06:00am 11.1 9.7 10.9 99 0.1 NW 9 13 5 7 1013.2 1013.0 0.6
18/05:30am 11.3 10.5 11.1 99 0.1 WNW 6 7 3 4 1013.3 1013.1 0.6
18/05:00am 11.3 10.5 11.1 99 0.1 WNW 6 9 3 5 1013.3 1013.1 0.6
18/04:30am 11.3 10.3 11.1 99 0.1 WNW 7 11 4 6 1013.1 1012.9 0.6
18/04:00am 11.4 10.6 11.2 99 0.1 WNW 6 7 3 4 1013.0 1012.8 0.6
18/03:30am 11.4 10.1 11.2 99 0.1 WNW 9 11 5 6 1012.8 1012.6 0.6
18/03:00am 11.3 10.3 11.1 99 0.1 WNW 7 9 4 5 1013.1 1012.9 0.6
18/02:30am 11.3 10.9 11.1 99 0.1 NW 4 6 2 3 1013.2 1013.0 0.6
18/02:00am 11.3 10.5 11.1 99 0.1 NNW 6 7 3 4 1013.3 1013.1 0.6
18/01:30am 11.3 10.3 11.1 99 0.1 NNW 7 9 4 5 1013.8 1013.6 0.6
18/01:00am 11.4 10.5 11.2 99 0.1 NW 7 9 4 5 1014.2 1014.0 0.6
18/12:30am 11.4 10.6 11.2 99 0.1 WNW 6 9 3 5 1014.4 1014.2 0.6
18/12:00am 11.4 9.7 11.2 99 0.1 NW 11 13 6 7 1014.7 1014.5 0.4
 
Date/Time
EST
Temp
°C
App
Temp
°C
Dew
Point
Rel
Hum
%
Delta-T
°C
Wind Press
QNH
hPa
Press
MSL
hPa
Rain
since 9 am
mm
Dir
 
Spd
km/h
Gust
km/h
Spd
kts
Gust
kts
17/11:30pm 11.4 10.1 11.2 99 0.1 NNW 9 11 5 6 1015.2 1015.0 0.4
17/11:00pm 11.3 10.5 11.1 99 0.1 NW 6 7 3 4 1015.3 1015.2 0.4
17/10:30pm 11.2 10.2 11.0 99 0.1 NW 7 11 4 6 1015.5 1015.4 0.4
17/10:00pm 11.3 10.5 11.1 99 0.1 NW 6 6 3 3 1015.8 1015.7 0.4
17/09:30pm 11.5 10.8 11.3 99 0.1 WNW 6 9 3 5 1016.1 1016.0 0.2
17/09:00pm 11.7 10.7 11.1 96 0.3 NW 7 9 4 5 1016.0 1015.9 0.0
17/08:30pm 11.8 10.7 10.7 93 0.6 N 7 11 4 6 1015.8 1015.7 0.0
17/08:00pm 11.8 10.7 10.7 93 0.6 N 7 9 4 5 1016.0 1015.9 0.0
17/07:30pm 12.4 10.8 10.1 86 1.2 N 9 15 5 8 1016.2 1016.1 0.0
17/07:00pm 13.2 11.0 9.5 78 1.9 N 11 15 6 8 1016.3 1016.2 0.0
17/06:30pm 13.6 11.3 9.1 74 2.3 N 11 17 6 9 1016.2 1016.1 0.0
17/06:00pm 13.8 11.4 8.8 72 2.5 NNE 11 15 6 8 1016.1 1016.0 0.0
17/05:30pm 13.9 11.9 8.7 71 2.7 N 9 13 5 7 1015.9 1015.8 0.0
17/05:00pm 14.2 10.6 8.4 68 2.9 NNE 17 20 9 11 1016.2 1016.1 0.0
17/04:30pm 14.5 11.2 8.0 65 3.3 N 15 20 8 11 1016.5 1016.4 0.0
17/04:00pm 14.8 11.1 7.8 63 3.5 N 17 24 9 13 1016.9 1016.8 0.0
17/03:30pm 14.9 11.0 7.2 60 3.8 NNE 17 22 9 12 1017.0 1016.9 0.0
17/03:00pm 14.9 12.2 7.5 61 3.7 NNW 11 15 6 8 1018.0 1017.8 0.0
17/02:30pm 14.7 11.9 6.8 59 3.9 NNW 11 15 6 8 1018.2 1018.0 0.0
17/02:00pm 14.8 11.2 6.9 59 3.9 NNE 15 20 8 11 1017.5 1017.3 0.0
17/01:30pm 14.8 12.9 7.4 61 3.7 NNE 7 9 4 5 1018.3 1018.1 0.0
17/01:00pm 14.9 12.9 7.0 59 3.9 N 7 11 4 6 1019.5 1019.4 0.0
17/12:30pm 14.6 12.6 7.2 61 3.7 NNE 7 13 4 7 1020.2 1020.1 0.0
17/12:00pm 13.9 11.9 7.0 63 3.4 NNE 7 13 4 7 1020.9 1020.8 0.0
17/11:30am 13.6 10.9 7.2 65 3.2 NE 11 13 6 7 1021.4 1021.3 0.0
17/11:00am 13.3 10.3 7.5 68 2.9 E 13 19 7 10 1021.3 1021.2 0.0
17/10:30am 12.9 9.5 7.8 71 2.5 E 15 22 8 12 1022.3 1022.1 0.0
17/10:00am 12.0 8.3 7.9 76 2.0 E 17 22 9 12 1023.0 1022.9 0.0
17/09:30am 10.4 7.6 7.1 80 1.6 E 11 15 6 8 1023.2 1023.1 0.0
17/09:00am 9.2 7.2 7.2 87 0.9 ENE 7 11 4 6 1023.8 1023.7 0.0
17/08:30am 7.7 6.9 6.5 92 0.6 CALM 0 4 0 2 1023.9 1023.8 0.0
17/08:00am 6.6 5.7 6.0 96 0.3 CALM 0 0 0 0 1023.9 1023.8 0.0
17/07:30am 5.6 4.5 5.2 97 0.2 CALM 0 2 0 1 1023.7 1023.6 0.0
17/07:00am 5.4 3.5 4.8 96 0.3 SSW 4 4 2 2 1023.3 1023.2 0.0
17/06:30am 5.5 3.6 4.8 95 0.3 SSW 4 6 2 3 1023.2 1023.1 0.0
17/06:00am 5.5 4.3 4.5 93 0.4 CALM 0 4 0 2 1023.1 1023.0 0.0
17/05:30am 5.8 4.6 4.4 91 0.6 CALM 0 0 0 0 1023.2 1023.1 0.0
17/05:00am 6.5 5.5 5.5 93 0.4 CALM 0 0 0 0 1023.3 1023.2 0.0
17/04:30am 6.5 5.5 5.5 93 0.4 CALM 0 0 0 0 1023.3 1023.2 0.0
17/04:00am 6.3 4.8 4.9 91 0.6 SSW 2 4 1 2 1023.3 1023.2 0.0
17/03:30am 7.1 4.8 5.7 91 0.6 SSW 7 7 4 4 1023.4 1023.3 0.0
17/03:00am 6.4 4.9 5.0 91 0.6 N 2 4 1 2 1023.3 1023.2 0.0
17/02:30am 7.2 5.1 5.7 90 0.7 N 6 6 3 3 1023.4 1023.3 0.0
17/02:00am 7.6 5.5 5.9 89 0.8 NNE 6 7 3 4 1023.8 1023.7 0.0
17/01:30am 7.7 6.0 5.7 87 0.9 SE 4 6 2 3 1024.1 1024.0 0.0
17/01:00am 8.5 7.3 6.3 86 1.0 SE 2 4 1 2 1024.9 1024.8 0.0
17/12:30am 8.4 7.1 6.0 85 1.1 SE 2 4 1 2 1025.2 1025.1 0.0
17/12:00am 8.6 6.9 5.9 83 1.2 SE 4 6 2 3 1025.6 1025.5 0.0
 
Date/Time
EST
Temp
°C
App
Temp
°C
Dew
Point
Rel
Hum
%
Delta-T
°C
Wind Press
QNH
hPa
Press
MSL
hPa
Rain
since 9 am
mm
Dir
 
Spd
km/h
Gust
km/h
Spd
kts
Gust
kts
16/11:30pm 8.8 7.1 6.1 83 1.3 SE 4 4 2 2 1026.0 1025.9 0.0
16/11:00pm 8.9 6.8 6.0 82 1.3 SE 6 7 3 4 1026.5 1026.3 0.0
16/10:30pm 9.3 7.2 6.0 80 1.5 SE 6 7 3 4 1026.7 1026.6 0.0
16/10:00pm 9.6 7.4 6.1 79 1.6 SE 7 9 4 5 1026.7 1026.6 0.0
16/09:30pm 10.1 7.9 6.3 77 1.8 SSE 7 9 4 5 1026.7 1026.6 0.0
16/09:00pm 10.4 7.9 6.4 76 1.9 SSE 9 9 5 5 1026.5 1026.3 0.0
16/08:30pm 10.8 8.3 6.6 75 2.0 SSE 9 13 5 7 1026.5 1026.3 0.0
16/08:00pm 11.0 8.1 6.6 74 2.1 S 11 13 6 7 1026.6 1026.5 0.0
16/07:30pm 11.4 8.1 6.5 72 2.3 S 13 17 7 9 1026.5 1026.3 0.0
16/07:00pm 11.9 9.0 6.6 70 2.5 SSW 11 15 6 8 1026.4 1026.2 0.0
16/06:30pm 12.1 9.2 6.6 69 2.6 S 11 13 6 7 1025.7 1025.6 0.0
16/06:00pm 12.7 8.7 6.5 66 3.0 S 17 20 9 11 1025.3 1025.2 0.0
16/05:30pm 13.6 9.6 6.7 63 3.4 S 17 20 9 11 1025.4 1025.3 0.0
16/05:00pm 14.6 10.6 6.7 59 3.9 S 17 24 9 13 1025.1 1025.0 0.0
16/04:30pm 15.4 11.3 6.2 54 4.5 SSW 17 22 9 12 1024.8 1024.7 0.0
16/04:00pm 15.7 11.6 6.2 53 4.6 S 17 26 9 14 1024.6 1024.5 0.0
16/03:30pm 15.9 12.2 6.1 52 4.8 SSW 15 28 8 15 1024.8 1024.7 0.0
16/03:00pm 16.0 12.3 6.2 52 4.8 SSW 15 22 8 12 1024.8 1024.7 0.0

Other Formats:

Comma delimited format used in spreadsheet applications
http://www.bom.gov.au/fwo/IDV60801/IDV60801.95840.axf

JavaScript Object Notation format (JSON) in row-major order
http://www.bom.gov.au/fwo/IDV60801/IDV60801.95840.json